createdAt,value
2022-08-08T00:02:31.666Z,76.10
2022-08-08T00:04:48.860Z,76.10
2022-08-08T00:07:40.058Z,76.10
2022-08-08T00:10:10.771Z,76.00
2022-08-08T00:12:58.290Z,76.00
2022-08-08T00:15:57.157Z,75.90
2022-08-08T00:18:43.926Z,75.80
2022-08-08T00:21:16.347Z,75.70
2022-08-08T00:23:56.895Z,75.70
2022-08-08T00:26:40.106Z,75.70
2022-08-08T00:29:45.799Z,75.60
2022-08-08T00:32:29.240Z,75.60
2022-08-08T00:35:18.389Z,75.60
2022-08-08T00:38:01.249Z,75.60
2022-08-08T00:41:12.079Z,75.50
2022-08-08T00:43:40.540Z,75.50
2022-08-08T00:46:26.848Z,75.50
2022-08-08T00:49:21.983Z,75.40
2022-08-08T00:51:57.169Z,75.50
2022-08-08T00:54:33.575Z,75.50
2022-08-08T00:57:19.733Z,75.40
2022-08-08T01:00:16.341Z,75.50
2022-08-08T01:03:59.720Z,75.50
2022-08-08T01:05:59.450Z,75.50
2022-08-08T01:08:30.557Z,75.60
2022-08-08T01:11:09.751Z,75.70
2022-08-08T01:13:58.515Z,75.70
2022-08-08T01:16:46.496Z,75.70
2022-08-08T01:19:51.844Z,75.70
2022-08-08T01:22:23.629Z,75.80
2022-08-08T01:25:18.349Z,75.90
2022-08-08T01:28:02.645Z,75.90
2022-08-08T01:30:35.750Z,75.70
2022-08-08T01:33:23.549Z,75.80
2022-08-08T01:36:13.689Z,75.80
2022-08-08T01:38:50.675Z,75.80
2022-08-08T01:41:43.785Z,75.90
2022-08-08T01:44:31.520Z,76.10
2022-08-08T01:48:15.974Z,76.20
2022-08-08T01:50:10.639Z,76.00
2022-08-08T01:55:17.605Z,76.20
2022-08-08T01:56:29.080Z,76.20
2022-08-08T01:58:46.941Z,76.10
2022-08-08T02:01:54.990Z,75.90
2022-08-08T02:04:21.318Z,76.00
2022-08-08T02:06:52.096Z,75.90
2022-08-08T02:10:02.773Z,76.00
2022-08-08T02:12:26.369Z,75.90
2022-08-08T02:14:59.272Z,75.60
2022-08-08T02:17:42.646Z,75.60
2022-08-08T02:21:00.878Z,75.60
2022-08-08T02:23:18.309Z,75.70
2022-08-08T02:26:01.594Z,76.00
2022-08-08T02:28:48.603Z,76.20
2022-08-08T02:31:59.150Z,75.90
2022-08-08T02:34:32.964Z,75.80
2022-08-08T02:37:51.989Z,75.80
2022-08-08T02:40:08.873Z,75.80
2022-08-08T02:44:35.517Z,75.80
2022-08-08T02:45:51.404Z,76.00
2022-08-08T02:48:31.743Z,76.10
2022-08-08T02:51:29.930Z,76.10
2022-08-08T02:54:09.838Z,76.10
2022-08-08T02:56:42.988Z,75.90
2022-08-08T02:59:58.460Z,76.00
2022-08-08T03:02:50.827Z,76.00
2022-08-08T03:05:21.132Z,76.00
2022-08-08T03:08:06.747Z,76.00
2022-08-08T03:11:13.977Z,76.00
2022-08-08T03:15:58.851Z,76.00
2022-08-08T03:17:05.442Z,76.10
2022-08-08T03:19:51.145Z,76.10
2022-08-08T03:22:38.779Z,76.10
2022-08-08T03:25:14.803Z,76.10
2022-08-08T03:27:56.577Z,76.30
2022-08-08T03:30:25.092Z,76.30
2022-08-08T03:33:56.683Z,76.30
2022-08-08T03:35:58.843Z,76.20
2022-08-08T03:38:54.724Z,76.00
2022-08-08T03:42:04.136Z,76.10
2022-08-08T03:44:00.818Z,76.20
2022-08-08T03:46:32.270Z,76.20
2022-08-08T03:49:15.266Z,76.10
2022-08-08T03:51:51.915Z,76.10
2022-08-08T03:54:51.851Z,76.10
2022-08-08T03:58:32.906Z,76.10
2022-08-08T04:00:07.811Z,76.00
2022-08-08T04:02:47.748Z,75.80
2022-08-08T04:05:22.802Z,75.60
2022-08-08T04:07:55.967Z,75.40
2022-08-08T04:10:22.937Z,75.30
2022-08-08T04:12:50.004Z,75.30
2022-08-08T04:15:17.252Z,75.00
2022-08-08T04:17:59.101Z,74.70
2022-08-08T04:20:28.552Z,74.60
2022-08-08T04:22:57.160Z,74.50
2022-08-08T04:25:29.807Z,74.50
2022-08-08T04:28:34.322Z,74.50
2022-08-08T04:30:45.038Z,74.40
2022-08-08T04:33:12.471Z,74.10
2022-08-08T04:35:46.930Z,74.00
2022-08-08T04:38:21.439Z,73.90
2022-08-08T04:40:53.289Z,73.60
2022-08-08T04:43:31.386Z,73.60
2022-08-08T04:46:09.762Z,73.50
2022-08-08T04:48:36.777Z,73.20
2022-08-08T04:51:03.760Z,72.80
2022-08-08T04:54:36.234Z,72.70
2022-08-08T04:56:18.939Z,72.60
2022-08-08T04:58:46.181Z,72.30
2022-08-08T05:01:15.536Z,72.20
2022-08-08T05:04:10.272Z,72.10
2022-08-08T05:06:29.567Z,72.00
2022-08-08T05:09:02.669Z,72.00
2022-08-08T05:11:39.427Z,71.90
2022-08-08T05:14:07.722Z,71.80
2022-08-08T05:16:52.550Z,71.70
2022-08-08T05:20:11.951Z,71.60
2022-08-08T05:22:10.762Z,71.40
2022-08-08T05:24:38.844Z,71.20
2022-08-08T05:27:07.874Z,71.20
2022-08-08T05:29:36.782Z,71.20
2022-08-08T05:32:08.400Z,71.10
2022-08-08T05:34:43.622Z,70.90
2022-08-08T05:37:18.571Z,70.60
2022-08-08T05:39:50.255Z,70.50
2022-08-08T05:42:19.403Z,70.60
2022-08-08T05:44:53.509Z,70.60
2022-08-08T05:47:22.282Z,70.40
2022-08-08T05:49:54.122Z,70.30
2022-08-08T05:52:31.969Z,70.40
2022-08-08T05:55:09.965Z,70.40
2022-08-08T05:58:06.041Z,70.30
2022-08-08T06:00:25.961Z,70.30
2022-08-08T06:03:10.753Z,70.20
2022-08-08T06:06:01.243Z,70.20
2022-08-08T06:08:34.717Z,70.10
2022-08-08T06:11:08.331Z,70.20
2022-08-08T06:13:36.311Z,70.20
2022-08-08T06:16:14.786Z,70.10
2022-08-08T06:18:42.804Z,70.10
2022-08-08T06:21:28.584Z,70.10
2022-08-08T06:24:03.372Z,70.20
2022-08-08T06:26:45.165Z,70.20
2022-08-08T06:29:48.595Z,70.10
2022-08-08T06:32:15.053Z,70.10
2022-08-08T06:34:52.389Z,70.10
2022-08-08T06:37:37.296Z,70.00
2022-08-08T06:40:07.254Z,70.00
2022-08-08T06:42:40.186Z,70.00
2022-08-08T06:45:08.692Z,70.00
2022-08-08T06:47:52.151Z,70.00
2022-08-08T06:50:32.295Z,69.90
2022-08-08T06:53:13.921Z,70.00
2022-08-08T06:55:47.189Z,70.00
2022-08-08T06:58:20.702Z,70.00
2022-08-08T07:00:50.228Z,70.00
2022-08-08T07:03:52.261Z,70.00
2022-08-08T07:06:16.047Z,70.00
2022-08-08T07:08:47.176Z,70.00
2022-08-08T07:11:22.221Z,70.00
2022-08-08T07:14:00.832Z,70.00
2022-08-08T07:16:37.844Z,69.90
2022-08-08T07:19:37.443Z,69.90
2022-08-08T07:22:11.948Z,69.80
2022-08-08T07:24:54.466Z,69.90
2022-08-08T07:27:35.111Z,70.00
2022-08-08T07:30:16.690Z,70.10
2022-08-08T07:32:47.790Z,70.10
2022-08-08T07:35:16.051Z,70.10
2022-08-08T07:38:04.948Z,69.80
2022-08-08T07:40:34.284Z,69.90
2022-08-08T07:43:04.155Z,70.00
2022-08-08T07:46:05.523Z,70.00
2022-08-08T07:48:24.393Z,70.20
2022-08-08T07:50:59.168Z,70.30
2022-08-08T07:54:02.069Z,70.30
2022-08-08T07:56:16.836Z,70.40
2022-08-08T07:59:03.237Z,70.50
2022-08-08T08:02:35.042Z,70.70
2022-08-08T08:04:23.821Z,70.90
2022-08-08T08:06:53.136Z,71.00
2022-08-08T08:09:26.364Z,71.00
2022-08-08T08:11:56.012Z,71.10
2022-08-08T08:14:43.837Z,71.10
2022-08-08T08:17:16.013Z,71.10
2022-08-08T08:19:46.185Z,70.90
2022-08-08T08:22:25.551Z,70.80
2022-08-08T08:25:07.959Z,70.80
2022-08-08T08:27:36.141Z,70.80
2022-08-08T08:30:03.615Z,70.60
2022-08-08T08:32:41.026Z,70.40
2022-08-08T08:35:16.633Z,70.00
2022-08-08T08:38:14.524Z,69.50
2022-08-08T08:40:35.656Z,69.00
2022-08-08T08:43:03.206Z,68.30
2022-08-08T08:45:31.365Z,67.80
2022-08-08T08:48:00.859Z,67.40
2022-08-08T08:50:33.314Z,67.00
2022-08-08T08:53:04.639Z,66.70
2022-08-08T08:55:39.465Z,66.30
2022-08-08T08:58:09.222Z,66.10
2022-08-08T09:01:04.862Z,65.50
2022-08-08T09:03:42.997Z,64.40
2022-08-08T09:06:26.199Z,64.30
2022-08-08T09:09:18.719Z,63.90
2022-08-08T09:12:06.030Z,63.60
2022-08-08T09:14:35.637Z,63.20
2022-08-08T09:17:17.308Z,62.80
2022-08-08T09:22:00.135Z,62.70
2022-08-08T09:22:35.712Z,62.40
2022-08-08T09:25:03.921Z,61.70
2022-08-08T09:27:41.836Z,60.80
2022-08-08T09:30:21.998Z,60.70
2022-08-08T09:33:54.069Z,60.70
2022-08-08T09:35:48.733Z,60.40
2022-08-08T09:38:53.324Z,60.00
2022-08-08T09:41:33.593Z,59.90
2022-08-08T09:44:29.714Z,59.70
2022-08-08T09:47:26.589Z,59.80
2022-08-08T09:49:53.433Z,59.80
2022-08-08T09:52:56.317Z,59.60
2022-08-08T09:55:12.874Z,59.40
2022-08-08T09:57:55.831Z,59.30
2022-08-08T10:00:47.850Z,59.40
2022-08-08T10:03:20.027Z,58.90
2022-08-08T10:05:47.455Z,58.50
2022-08-08T10:08:16.665Z,58.40
2022-08-08T10:10:50.030Z,58.30
2022-08-08T10:13:26.072Z,58.20
2022-08-08T10:16:01.924Z,58.00
2022-08-08T10:18:35.037Z,58.00
2022-08-08T10:21:23.215Z,58.00
2022-08-08T10:23:57.943Z,58.00
2022-08-08T10:26:52.405Z,57.90
2022-08-08T10:29:23.206Z,57.50
2022-08-08T10:32:15.298Z,57.10
2022-08-08T10:34:49.961Z,56.90
2022-08-08T10:37:27.653Z,56.50
2022-08-08T10:39:55.893Z,56.00
2022-08-08T10:42:27.041Z,55.50
2022-08-08T10:45:08.776Z,55.40
2022-08-08T10:47:43.244Z,55.40
2022-08-08T10:50:15.503Z,55.40
2022-08-08T10:52:44.527Z,55.20
2022-08-08T10:55:40.416Z,55.00
2022-08-08T10:58:05.676Z,54.60
2022-08-08T11:00:35.673Z,53.80
2022-08-08T11:03:16.338Z,53.90
2022-08-08T11:06:00.583Z,53.80
2022-08-08T11:08:42.068Z,53.60
2022-08-08T11:11:31.943Z,54.10
2022-08-08T11:14:01.205Z,54.10
2022-08-08T11:16:33.086Z,53.10
2022-08-08T11:19:03.045Z,53.20
2022-08-08T11:21:37.908Z,53.40
2022-08-08T11:24:06.339Z,53.40
2022-08-08T11:26:38.438Z,53.10
2022-08-08T11:29:23.849Z,52.60
2022-08-08T11:32:09.928Z,51.90
2022-08-08T11:35:08.022Z,51.80
2022-08-08T11:38:36.709Z,51.40
2022-08-08T11:40:25.828Z,51.10
2022-08-08T11:42:54.661Z,50.40
2022-08-08T11:45:22.573Z,48.70
2022-08-08T11:48:04.994Z,48.00
2022-08-08T11:50:34.073Z,47.30
2022-08-08T11:53:06.270Z,47.10
2022-08-08T11:55:36.741Z,47.60
2022-08-08T11:58:14.563Z,47.60
2022-08-08T12:00:50.656Z,47.80
2022-08-08T12:03:20.909Z,48.20
2022-08-08T12:05:48.902Z,48.30
2022-08-08T12:08:16.797Z,48.60
2022-08-08T12:10:48.156Z,48.80
2022-08-08T12:13:16.646Z,49.10
2022-08-08T12:15:49.192Z,49.00
2022-08-08T12:18:21.322Z,47.90
2022-08-08T12:20:53.217Z,47.30
2022-08-08T12:23:43.905Z,46.20
2022-08-08T12:26:28.473Z,46.00
2022-08-08T12:29:17.634Z,45.90
2022-08-08T12:31:54.351Z,46.20
2022-08-08T12:34:42.227Z,46.40
2022-08-08T12:37:12.356Z,46.60
2022-08-08T12:40:00.810Z,46.80
2022-08-08T12:42:31.807Z,47.10
2022-08-08T12:45:19.909Z,47.30
2022-08-08T12:48:10.070Z,47.60
2022-08-08T12:50:48.410Z,47.70
2022-08-08T12:53:24.719Z,47.60
2022-08-08T12:56:17.998Z,47.40
2022-08-08T12:58:48.417Z,47.40
2022-08-08T13:01:16.010Z,47.60
2022-08-08T13:03:51.885Z,47.90
2022-08-08T13:06:20.486Z,48.00
2022-08-08T13:08:53.658Z,47.80
2022-08-08T13:11:25.220Z,47.50
2022-08-08T13:14:06.472Z,47.60
2022-08-08T13:16:37.749Z,47.50
2022-08-08T13:19:12.243Z,47.30
2022-08-08T13:21:52.727Z,47.20
2022-08-08T13:24:38.627Z,47.30
2022-08-08T13:27:12.290Z,47.30
2022-08-08T13:29:53.625Z,47.50
2022-08-08T13:32:25.290Z,47.60
2022-08-08T13:34:54.331Z,47.20
2022-08-08T13:37:28.338Z,47.10
2022-08-08T13:40:10.923Z,47.20
2022-08-08T13:42:38.051Z,47.10
2022-08-08T13:45:06.401Z,46.70
2022-08-08T13:47:37.266Z,46.20
2022-08-08T13:50:35.543Z,45.50
2022-08-08T13:52:55.125Z,45.30
2022-08-08T13:55:29.696Z,45.50
2022-08-08T13:58:07.963Z,45.60
2022-08-08T14:00:39.674Z,45.80
2022-08-08T14:03:47.022Z,45.80
2022-08-08T14:06:32.138Z,46.10
2022-08-08T14:08:58.282Z,46.20
2022-08-08T14:11:28.045Z,46.30
2022-08-08T14:14:00.382Z,46.50
2022-08-08T14:16:29.296Z,46.30
2022-08-08T14:18:57.967Z,46.30
2022-08-08T14:21:48.761Z,46.30
2022-08-08T14:24:32.075Z,46.20
2022-08-08T14:26:59.089Z,45.70
2022-08-08T14:29:31.031Z,46.00
2022-08-08T14:32:10.067Z,45.90
2022-08-08T14:34:42.140Z,45.50
2022-08-08T14:37:13.128Z,45.10
2022-08-08T14:39:49.508Z,44.60
2022-08-08T14:42:26.675Z,44.20
2022-08-08T14:44:58.022Z,44.00
2022-08-08T14:47:30.307Z,43.90
2022-08-08T14:50:15.090Z,43.90
2022-08-08T14:52:58.762Z,44.00
2022-08-08T14:55:41.465Z,44.30
2022-08-08T14:58:11.788Z,44.60
2022-08-08T15:00:43.676Z,45.10
2022-08-08T15:03:16.291Z,45.30
2022-08-08T15:05:53.194Z,45.40
2022-08-08T15:08:35.411Z,45.30
2022-08-08T15:11:11.722Z,44.90
2022-08-08T15:14:02.829Z,44.80
2022-08-08T15:16:34.469Z,44.70
2022-08-08T15:19:02.264Z,44.60
2022-08-08T15:21:30.319Z,44.50
2022-08-08T15:23:58.265Z,44.30
2022-08-08T15:26:25.418Z,44.20
2022-08-08T15:28:54.339Z,44.10
2022-08-08T15:31:25.874Z,44.30
2022-08-08T15:34:29.696Z,44.40
2022-08-08T15:36:59.341Z,44.70
2022-08-08T15:39:30.004Z,44.90
2022-08-08T15:41:58.199Z,45.20
2022-08-08T15:44:26.968Z,45.20
2022-08-08T15:46:54.289Z,45.50
2022-08-08T15:49:24.502Z,45.60
2022-08-08T15:51:55.001Z,45.80
2022-08-08T15:54:38.215Z,45.90
2022-08-08T15:57:07.791Z,46.00
2022-08-08T16:00:05.983Z,46.20
2022-08-08T16:02:33.185Z,46.30
2022-08-08T16:05:01.608Z,46.50
2022-08-08T16:07:39.463Z,46.60
2022-08-08T16:13:11.732Z,46.70
2022-08-08T16:13:33.968Z,46.90
2022-08-08T16:15:57.478Z,47.10
2022-08-08T16:18:30.025Z,47.30
2022-08-08T16:21:00.576Z,47.50
2022-08-08T16:23:31.474Z,47.60
2022-08-08T16:26:12.761Z,47.70
2022-08-08T16:28:44.751Z,47.80
2022-08-08T16:31:13.139Z,47.90
2022-08-08T16:33:40.635Z,48.10
2022-08-08T16:36:13.076Z,48.20
2022-08-08T16:38:47.139Z,48.30
2022-08-08T16:41:18.341Z,48.50
2022-08-08T16:43:51.072Z,48.50
2022-08-08T16:46:43.078Z,48.70
2022-08-08T16:49:09.598Z,48.80
2022-08-08T16:55:18.135Z,49.10
2022-08-08T16:55:20.747Z,48.90
2022-08-08T16:57:27.925Z,49.20
2022-08-08T17:00:08.552Z,49.30
2022-08-08T17:02:39.647Z,49.30
2022-08-08T17:05:08.033Z,49.40
2022-08-08T17:07:37.921Z,49.50
2022-08-08T17:10:09.007Z,49.60
2022-08-08T17:12:36.425Z,49.80
2022-08-08T17:15:20.527Z,49.90
2022-08-08T17:18:01.026Z,50.00
2022-08-08T17:20:39.764Z,49.90
2022-08-08T17:23:25.869Z,50.00
2022-08-08T17:25:55.184Z,50.20
2022-08-08T17:28:34.805Z,50.30
2022-08-08T17:31:39.603Z,50.30
2022-08-08T17:34:49.638Z,50.30
2022-08-08T17:36:38.322Z,50.30
2022-08-08T17:40:03.439Z,50.40
2022-08-08T17:42:12.348Z,50.40
2022-08-08T17:44:39.838Z,50.40
2022-08-08T17:47:11.173Z,50.50
2022-08-08T17:49:43.723Z,50.60
2022-08-08T17:52:10.794Z,50.60
2022-08-08T17:54:37.743Z,50.70
2022-08-08T17:57:06.143Z,50.80
2022-08-08T17:59:36.470Z,50.90
2022-08-08T18:02:18.816Z,51.00
2022-08-08T18:04:51.109Z,51.30
2022-08-08T18:08:11.821Z,51.60
2022-08-08T18:10:05.507Z,52.00
2022-08-08T18:12:32.555Z,52.30
2022-08-08T18:15:00.573Z,52.70
2022-08-08T18:17:28.465Z,53.10
2022-08-08T18:20:36.938Z,53.50
2022-08-08T18:23:02.443Z,53.90
2022-08-08T18:25:37.031Z,54.40
2022-08-08T18:28:04.802Z,54.70
2022-08-08T18:30:33.311Z,55.10
2022-08-08T18:33:02.349Z,55.50
2022-08-08T18:35:41.922Z,55.90
2022-08-08T18:38:17.243Z,56.30
2022-08-08T18:40:46.561Z,56.70
2022-08-08T18:43:16.479Z,56.80
2022-08-08T18:46:06.239Z,57.20
2022-08-08T18:48:31.435Z,57.30
2022-08-08T18:50:59.135Z,57.50
2022-08-08T18:54:00.743Z,57.60
2022-08-08T18:56:23.965Z,57.70
2022-08-08T18:58:52.385Z,58.00
2022-08-08T19:02:26.886Z,58.10
2022-08-08T19:04:12.473Z,58.00
2022-08-08T19:06:40.011Z,58.10
2022-08-08T19:09:13.506Z,58.40
2022-08-08T19:11:46.460Z,58.30
2022-08-08T19:14:20.312Z,58.40
2022-08-08T19:16:48.220Z,58.60
2022-08-08T19:19:16.034Z,58.60
2022-08-08T19:21:49.590Z,58.80
2022-08-08T19:24:50.845Z,59.00
2022-08-08T19:27:05.955Z,59.10
2022-08-08T19:29:40.783Z,59.50
2022-08-08T19:32:13.060Z,59.90
2022-08-08T19:34:47.893Z,60.10
2022-08-08T19:37:15.973Z,60.20
2022-08-08T19:39:45.772Z,60.20
2022-08-08T19:42:19.751Z,60.40
2022-08-08T19:44:50.162Z,60.60
2022-08-08T19:47:24.596Z,60.80
2022-08-08T19:49:59.767Z,60.90
2022-08-08T19:52:34.766Z,61.20
2022-08-08T19:55:11.509Z,61.40
2022-08-08T19:57:40.926Z,61.50
2022-08-08T20:00:11.059Z,61.70
2022-08-08T20:02:59.539Z,61.80
2022-08-08T20:06:15.093Z,62.00
2022-08-08T20:08:30.880Z,62.20
2022-08-08T20:11:00.176Z,62.60
2022-08-08T20:14:32.835Z,62.70
2022-08-08T20:16:15.539Z,62.90
2022-08-08T20:18:53.124Z,62.70
2022-08-08T20:21:24.998Z,62.80
2022-08-08T20:23:58.137Z,62.90
2022-08-08T20:26:27.576Z,62.80
2022-08-08T20:29:01.226Z,62.80
2022-08-08T20:32:07.515Z,62.80
2022-08-08T20:34:30.212Z,62.80
2022-08-08T20:37:02.584Z,62.80
2022-08-08T20:39:38.935Z,62.90
2022-08-08T20:42:18.564Z,63.00
2022-08-08T20:44:47.507Z,63.10
2022-08-08T20:47:23.261Z,63.30
2022-08-08T20:49:55.829Z,63.20
2022-08-08T20:52:26.372Z,63.10
2022-08-08T20:54:53.452Z,63.30
2022-08-08T20:57:21.277Z,63.60
2022-08-08T20:59:48.986Z,63.90
2022-08-08T21:02:25.871Z,64.20
2022-08-08T21:05:01.090Z,64.10
2022-08-08T21:07:47.150Z,64.10
2022-08-08T21:10:16.659Z,64.30
2022-08-08T21:12:44.623Z,64.40
2022-08-08T21:15:16.732Z,64.70
2022-08-08T21:18:00.257Z,64.80
2022-08-08T21:20:32.053Z,64.60
2022-08-08T21:23:02.540Z,64.60
2022-08-08T21:25:32.847Z,64.60
2022-08-08T21:28:09.350Z,64.60
2022-08-08T21:30:45.333Z,64.90
2022-08-08T21:33:18.992Z,65.20
2022-08-08T21:36:14.646Z,65.30
2022-08-08T21:38:33.178Z,65.40
2022-08-08T21:41:00.168Z,65.40
2022-08-08T21:43:30.971Z,65.40
2022-08-08T21:48:07.001Z,65.50
2022-08-08T21:48:51.548Z,65.70
2022-08-08T21:51:46.076Z,65.60
2022-08-08T21:54:27.408Z,65.70
2022-08-08T21:56:54.633Z,65.80
2022-08-08T21:59:22.917Z,65.90
2022-08-08T22:01:52.346Z,65.80
2022-08-08T22:04:24.701Z,65.90
2022-08-08T22:06:52.919Z,66.00
2022-08-08T22:09:20.503Z,66.00
2022-08-08T22:12:04.802Z,66.20
2022-08-08T22:14:37.168Z,66.30
2022-08-08T22:17:04.619Z,66.30
2022-08-08T22:20:10.609Z,66.10
2022-08-08T22:22:18.818Z,66.20
2022-08-08T22:24:45.858Z,66.00
2022-08-08T22:27:15.042Z,66.10
2022-08-08T22:30:01.402Z,66.20
2022-08-08T22:32:29.261Z,66.40
2022-08-08T22:34:56.730Z,66.40
2022-08-08T22:37:48.756Z,66.00
2022-08-08T22:40:16.927Z,66.00
2022-08-08T22:42:47.222Z,66.10
2022-08-08T22:45:14.792Z,65.90
2022-08-08T22:47:48.695Z,65.60
2022-08-08T22:50:27.327Z,65.40
2022-08-08T22:54:29.673Z,65.50
2022-08-08T22:55:59.351Z,65.80
2022-08-08T22:58:34.744Z,65.90
2022-08-08T23:02:01.229Z,66.00
2022-08-08T23:03:54.241Z,66.20
2022-08-08T23:06:22.982Z,66.30
2022-08-08T23:08:58.164Z,66.30
2022-08-08T23:11:31.304Z,66.30
2022-08-08T23:14:21.275Z,66.20
2022-08-08T23:16:57.579Z,66.10
2022-08-08T23:19:30.892Z,66.30
2022-08-08T23:21:59.327Z,66.40
2022-08-08T23:24:26.563Z,66.40
2022-08-08T23:27:03.465Z,66.60
2022-08-08T23:29:31.277Z,66.70
2022-08-08T23:31:58.704Z,66.70
2022-08-08T23:34:25.661Z,66.50
2022-08-08T23:37:00.741Z,66.60
2022-08-08T23:39:41.604Z,66.70
2022-08-08T23:42:16.183Z,66.70
2022-08-08T23:44:43.272Z,66.90
2022-08-08T23:49:02.237Z,67.00
2022-08-08T23:50:02.955Z,67.00
2022-08-08T23:52:33.555Z,66.90
2022-08-08T23:55:13.988Z,66.90
2022-08-08T23:57:52.542Z,66.90
